Humidity-temperature Sensor

Selected Measurement Type: Air Temperature

 
Air Temperature [°C]     6 entries per hour
Showing data from 8/15/2022 (13:00:00 Z) to 8/14/2022 (00:01:00 Z)
Previous Next [ Day | 3-Days | 7-Days ]
First Last
Prev [ Day | 3-Days | 7-Days ] Next
First Last

Start Time:     :
End Time:     :     
Time (in GMT) :00 :50 :40 :30 :20 :10
Previous Next [ Day | 3-Days | 7-Days ]
First Last
Prev [ Day | 3-Days | 7-Days ] Next
First Last


123 => good data
MM => data is determined as missing
-- => data not received/configured
Back to Top Back to Top
8/15/2022 13:00 to 12:10 25.56 25.45 25.40 25.21 25.15 25.30
8/15/2022 12:00 to 11:10 25.07 25.27 25.03 24.89 25.25 25.15
8/15/2022 11:00 to 10:10 25.12 24.96 25.02 24.96 24.72 24.76
8/15/2022 10:00 to 9:10 24.90 24.65 24.70 24.68 24.67 24.52
8/15/2022 09:00 to 8:10 24.48 24.64 24.48 24.27 24.45 24.32
8/15/2022 08:00 to 7:10 24.51 24.56 24.73 24.63 24.72 24.65
8/15/2022 07:00 to 6:10 24.67 24.46 24.83 24.86 24.96 24.85
8/15/2022 06:00 to 5:10 24.76 24.93 24.98 25.01 24.93 24.89
8/15/2022 05:00 to 4:10 24.77 24.83 25.09 25.76 25.49 25.57
8/15/2022 04:00 to 3:10 25.76 25.66 25.91 25.42 25.54 25.32
8/15/2022 03:00 to 2:10 25.19 25.24 25.15 25.11 24.99 24.84
8/15/2022 02:00 to 1:10 25.24 25.08 25.08 25.00 24.96 24.81
8/15/2022 01:00 to 0:10 24.75 24.46 24.47 24.83 24.71 25.19
8/15/2022 00:00 to 23:10 25.31 25.53 25.52 25.38 25.34 25.32
8/14/2022 23:00 to 22:10 25.27 25.36 25.18 25.16 25.08 25.05
8/14/2022 22:00 to 21:10 25.42 25.09 25.29 25.28 25.52 25.61
8/14/2022 21:00 to 20:10 25.16 25.22 25.42 25.28 25.35 25.13
8/14/2022 20:00 to 19:10 -- -- -- -- -- --
8/14/2022 19:00 to 18:10 26.01 26.12 25.99 26.13 26.14 26.02
8/14/2022 18:00 to 17:10 25.82 25.84 25.70 25.88 25.71 26.23
8/14/2022 17:00 to 16:10 26.04 26.02 25.99 25.87 25.94 25.95
8/14/2022 16:00 to 15:10 25.76 25.82 25.72 25.99 25.82 25.70
8/14/2022 15:00 to 14:10 25.48 25.84 25.80 25.41 25.83 25.85
8/14/2022 14:00 to 13:10 25.78 25.64 25.45 25.28 25.13 25.28
8/14/2022 13:00 to 12:10 25.21 25.23 25.27 25.02 24.88 24.92
8/14/2022 12:00 to 11:10 25.12 24.82 24.85 24.97 24.99 25.04
8/14/2022 11:00 to 10:10 25.06 24.95 24.81 24.89 25.08 24.80
8/14/2022 10:00 to 9:10 24.98 25.08 24.99 25.03 25.02 25.15
8/14/2022 09:00 to 8:10 25.28 25.48 25.36 25.38 25.25 25.11
8/14/2022 08:00 to 7:10 24.82 24.99 25.15 25.38 25.23 25.51
8/14/2022 07:00 to 6:10 25.56 25.54 25.64 25.72 25.58 25.76
8/14/2022 06:00 to 5:10 25.74 26.00 25.88 25.98 26.02 25.80
8/14/2022 05:00 to 4:10 25.78 25.73 25.92 25.97 25.87 25.93
8/14/2022 04:00 to 3:10 25.95 25.77 25.79 25.67 25.79 26.08
8/14/2022 03:00 to 2:10 25.79 25.59 25.49 25.46 25.28 25.34
8/14/2022 02:00 to 1:10 -- -- -- -- -- --
8/14/2022 01:00 to 0:10 25.29 25.45 25.52 25.87 25.59 25.59